Anch, Alaska
Current Conditions -  °F | °C
As of 10:58 AM on Thursday 18 Dec 2014 (Local Time) from PAED Reporting Station
Clear Clear  
Wind Chill: 11°   Ceiling: Unl
Heat Index: 18°   Visibility: 10mi
Dew Point: 14°   Wind: 5mph
Humidity: 87%   Direction: 60°ENE
Pressure: 29.47"   Gusts: NA
Location:  61.2265°N, 149.62°W
Report Text: PAED 181958Z AUTO 06004KT 10SM CLR M08/M10 A2947 RMK AO2 SLP978 T10801098
Loading
Personal Weather Stations






























Interactive Weather Map New forecast layout! Learn more

10-Day Weather Forecast

Advertisements
Track Severe Weather on mobile